Time;durP1;ratioP1;P1;durP2;ratioP2;P2;SDS_P1;SDS_P2;PMS_P1;PMS_P2;Temp;Humidity;BMP_temperature;BMP_pressure;BME280_temperature;BME280_humidity;BME280_pressure;Samples;Min_cycle;Max_cycle;Signal;HPM_P1;HPM_P2
2022/09/05 00:00:19;;;;;;;4.50;2.78;;;;;;;14.33;95.14;97802.72;5047919;28;20091;-64
2022/09/05 00:03:16;;;;;;;4.38;2.60;;;;;;;14.39;95.06;97790.75;5047471;28;20056;-64
2022/09/05 00:06:04;;;;;;;4.72;2.50;;;;;;;14.36;95.15;97786.66;5050258;28;20037;-63
2022/09/05 00:09:08;;;;;;;4.85;2.50;;;;;;;14.44;94.57;97786.16;5047986;28;20055;-64
2022/09/05 00:11:56;;;;;;;4.37;2.63;;;;;;;14.40;94.73;97778.78;5028353;28;20222;-64
2022/09/05 00:14:53;;;;;;;5.32;2.80;;;;;;;14.35;95.15;97779.59;5036360;28;20310;-63
2022/09/05 00:17:56;;;;;;;6.28;2.88;;;;;;;14.31;95.10;97783.94;5049264;28;20576;-63
2022/09/05 00:21:20;;;;;;;4.18;2.58;;;;;;;14.24;95.55;97780.63;5047384;28;20045;-64
2022/09/05 00:24:21;;;;;;;6.13;2.88;;;;;;;14.23;95.42;97784.44;5048410;28;20052;-63
2022/09/05 00:27:26;;;;;;;5.60;2.70;;;;;;;14.28;95.72;97785.28;5044897;28;20152;-64
2022/09/05 00:30:13;;;;;;;4.97;2.97;;;;;;;14.34;94.99;97777.13;5048454;28;20048;-64
2022/09/05 00:33:23;;;;;;;4.82;2.35;;;;;;;14.41;94.47;97777.72;5048478;28;20106;-64
2022/09/05 00:36:09;;;;;;;4.00;2.50;;;;;;;14.39;94.26;97768.97;5058802;28;20064;-65
2022/09/05 00:38:40;;;;;;;5.47;2.20;;;;;;;14.35;94.52;97765.97;5068523;28;20044;-64
2022/09/05 00:41:10;;;;;;;4.82;2.47;;;;;;;14.35;94.54;97767.88;5048435;28;20421;-64
2022/09/05 00:43:42;;;;;;;5.30;2.50;;;;;;;14.29;95.10;97765.13;5046651;28;20459;-64
2022/09/05 00:46:17;;;;;;;4.65;2.50;;;;;;;14.23;95.32;97774.34;5046192;28;20045;-62
2022/09/05 00:49:22;;;;;;;5.55;2.80;;;;;;;14.14;95.93;97779.50;5044701;28;20038;-64
2022/09/05 00:52:09;;;;;;;5.15;2.38;;;;;;;14.16;95.83;97777.31;5041767;28;20447;-64
2022/09/05 00:54:54;;;;;;;4.55;2.70;;;;;;;14.22;95.23;97774.63;5046580;28;20071;-63
2022/09/05 00:57:41;;;;;;;5.45;2.80;;;;;;;14.24;95.16;97776.00;5047277;28;20047;-64
2022/09/05 01:00:33;;;;;;;4.10;2.17;;;;;;;14.27;94.77;97777.38;5046599;28;20044;-63
2022/09/05 01:03:11;;;;;;;6.75;2.72;;;;;;;14.18;95.28;97774.31;5045114;28;20057;-64
2022/09/05 01:05:48;;;;;;;6.03;2.40;;;;;;;14.13;95.56;97777.03;5055955;28;20044;-63
2022/09/05 01:08:14;;;;;;;5.40;2.75;;;;;;;14.06;95.89;97777.28;5054363;28;20527;-64
2022/09/05 01:10:59;;;;;;;6.63;2.65;;;;;;;14.03;96.44;97769.63;5047268;28;20060;-64
2022/09/05 01:13:38;;;;;;;4.80;2.88;;;;;;;14.04;96.26;97752.19;5046865;28;20037;-63
2022/09/05 01:16:32;;;;;;;6.55;2.60;;;;;;;14.05;96.19;97762.03;5051136;28;20041;-63
2022/09/05 01:19:35;;;;;;;6.25;3.10;;;;;;;14.08;96.26;97763.41;5046778;28;20041;-64
2022/09/05 01:22:28;;;;;;;4.22;2.65;;;;;;;14.10;96.17;97769.38;5027081;28;20045;-64
2022/09/05 01:25:03;;;;;;;6.10;2.75;;;;;;;14.07;96.11;97759.84;5043327;28;20049;-64
2022/09/05 01:27:44;;;;;;;5.03;2.50;;;;;;;13.99;96.24;97758.47;5045374;28;20037;-64
2022/09/05 01:30:50;;;;;;;9.80;2.65;;;;;;;13.62;98.44;97757.44;5037211;28;20610;-63
2022/09/05 01:33:38;;;;;;;4.18;2.58;;;;;;;13.76;98.31;97754.25;5046889;28;20044;-64
2022/09/05 01:36:37;;;;;;;5.28;2.58;;;;;;;13.88;97.43;97754.03;5058562;28;20040;-64
2022/09/05 01:39:14;;;;;;;5.38;2.60;;;;;;;13.90;97.32;97757.34;5056587;28;20037;-64
2022/09/05 01:42:27;;;;;;;9.55;3.53;;;;;;;13.55;99.18;97756.00;5026638;28;20084;-64
2022/09/05 01:45:22;;;;;;;4.10;2.70;;;;;;;13.58;99.08;97759.06;5047059;28;20059;-64
2022/09/05 01:48:20;;;;;;;5.28;3.30;;;;;;;13.53;99.76;97761.75;5066531;28;20036;-63
2022/09/05 01:51:19;;;;;;;3.97;2.45;;;;;;;13.64;99.21;97763.44;5046102;28;20032;-65
2022/09/05 01:54:30;;;;;;;4.10;2.17;;;;;;;13.67;98.21;97762.09;5041959;28;20045;-64
2022/09/05 01:57:12;;;;;;;6.60;2.75;;;;;;;13.48;99.32;97767.94;5045669;28;20512;-63
2022/09/05 01:59:52;;;;;;;7.88;3.20;;;;;;;13.25;100.00;97761.78;5036362;28;20133;-66
2022/09/05 02:02:37;;;;;;;4.20;2.60;;;;;;;13.17;100.00;97764.16;5033470;28;20037;-64
2022/09/05 02:05:07;;;;;;;7.85;3.10;;;;;;;13.07;100.00;97760.25;5050272;28;20041;-64
2022/09/05 02:07:52;;;;;;;5.18;3.33;;;;;;;13.08;100.00;97759.19;5066337;28;20045;-63
2022/09/05 02:10:46;;;;;;;5.07;3.08;;;;;;;13.13;100.00;97756.50;5047344;28;20033;-63
2022/09/05 02:13:25;;;;;;;8.23;2.95;;;;;;;13.14;100.00;97760.88;5045253;28;20279;-64
2022/09/05 02:16:08;;;;;;;5.82;3.08;;;;;;;13.15;100.00;97761.69;5048889;28;20110;-63
2022/09/05 02:18:35;;;;;;;5.85;2.70;;;;;;;13.18;100.00;97760.34;5061620;28;20100;-64
2022/09/05 02:21:11;;;;;;;3.97;2.60;;;;;;;13.19;100.00;97749.22;5045730;28;20052;-64
2022/09/05 02:23:45;;;;;;;4.95;2.80;;;;;;;13.23;100.00;97757.69;5046282;28;20041;-64
2022/09/05 02:26:21;;;;;;;4.97;2.40;;;;;;;13.33;100.00;97748.75;5044575;28;20047;-63
2022/09/05 02:28:51;;;;;;;9.13;2.88;;;;;;;13.30;100.00;97754.75;5044103;28;20106;-64
2022/09/05 02:31:40;;;;;;;4.40;2.58;;;;;;;13.24;100.00;97754.69;5045534;28;20331;-64
2022/09/05 02:34:11;;;;;;;6.32;2.63;;;;;;;13.22;100.00;97758.75;5045719;28;20481;-64
2022/09/05 02:36:52;;;;;;;4.68;2.65;;;;;;;13.22;100.00;97764.19;5060527;28;20443;-64
2022/09/05 02:39:31;;;;;;;5.82;2.80;;;;;;;13.17;100.00;97759.53;5044841;28;20122;-63
2022/09/05 02:42:28;;;;;;;4.18;2.88;;;;;;;13.08;100.00;97764.63;5045373;28;20193;-63
2022/09/05 02:45:34;;;;;;;7.03;3.30;;;;;;;13.01;100.00;97764.00;5051510;28;20130;-63
2022/09/05 02:48:14;;;;;;;5.68;3.40;;;;;;;13.05;100.00;97765.13;5024760;28;20073;-64
2022/09/05 02:50:59;;;;;;;4.35;2.92;;;;;;;13.01;100.00;97764.84;5045291;28;20041;-63
2022/09/05 02:53:53;;;;;;;7.50;3.47;;;;;;;13.09;100.00;97766.25;5025908;28;20048;-63
2022/09/05 02:56:52;;;;;;;5.20;2.88;;;;;;;13.24;100.00;97762.03;5044032;28;20118;-63
2022/09/05 03:00:00;;;;;;;5.13;3.03;;;;;;;13.30;100.00;97750.09;5045241;28;20053;-63
2022/09/05 03:02:42;;;;;;;6.28;3.58;;;;;;;13.31;100.00;97753.66;5035632;28;20504;-64
2022/09/05 03:05:27;;;;;;;5.50;2.22;;;;;;;13.29;100.00;97755.81;5050286;28;20488;-63
2022/09/05 03:08:15;;;;;;;5.63;2.72;;;;;;;12.98;100.00;97750.94;5055426;28;20048;-63
2022/09/05 03:11:13;;;;;;;5.68;2.72;;;;;;;12.88;100.00;97751.66;5048730;28;20045;-64
2022/09/05 03:14:17;;;;;;;6.80;3.40;;;;;;;12.73;100.00;97757.78;5048798;28;20037;-63
2022/09/05 03:17:12;;;;;;;5.60;2.83;;;;;;;12.83;100.00;97757.88;5048394;28;20171;-63
2022/09/05 03:19:55;;;;;;;5.72;2.90;;;;;;;12.97;100.00;97754.75;5050130;28;20041;-64
2022/09/05 03:22:46;;;;;;;5.72;3.35;;;;;;;12.92;100.00;97752.81;5049880;28;20043;-64
2022/09/05 03:25:39;;;;;;;5.45;2.92;;;;;;;12.97;100.00;97752.84;5049638;28;20063;-64
2022/09/05 03:28:43;;;;;;;6.32;3.00;;;;;;;12.80;100.00;97755.69;5027598;28;20057;-64
2022/09/05 03:31:44;;;;;;;5.28;3.33;;;;;;;12.70;100.00;97752.84;5035972;28;20040;-64
2022/09/05 03:34:24;;;;;;;4.50;2.92;;;;;;;12.58;100.00;97756.56;5050013;28;20126;-63
2022/09/05 03:37:22;;;;;;;5.18;2.58;;;;;;;12.53;100.00;97755.69;5056117;28;20037;-64
2022/09/05 03:40:15;;;;;;;4.95;3.08;;;;;;;12.53;100.00;97753.75;5049430;28;20049;-64
2022/09/05 03:42:47;;;;;;;7.00;3.20;;;;;;;12.46;100.00;97747.72;5048644;28;20048;-63
2022/09/05 03:45:30;;;;;;;4.75;3.13;;;;;;;12.54;100.00;97755.44;5054915;28;20042;-64
2022/09/05 03:48:14;;;;;;;5.50;3.03;;;;;;;12.37;100.00;97755.50;5068663;28;20443;-63
2022/09/05 03:51:07;;;;;;;4.72;3.08;;;;;;;12.62;100.00;97756.84;5048089;28;20223;-64
2022/09/05 03:54:06;;;;;;;5.45;3.35;;;;;;;12.77;100.00;97752.66;5048558;28;20094;-65
2022/09/05 03:57:01;;;;;;;6.95;3.28;;;;;;;12.81;100.00;97751.06;5048323;28;20520;-64
2022/09/05 03:59:54;;;;;;;4.40;2.85;;;;;;;12.63;100.00;97757.69;5048602;28;20045;-64
2022/09/05 04:02:29;;;;;;;5.57;3.22;;;;;;;12.33;100.00;97755.19;5048369;28;20045;-65
2022/09/05 04:05:23;;;;;;;5.13;3.47;;;;;;;12.52;100.00;97749.41;5054633;28;20048;-64
2022/09/05 04:08:12;;;;;;;6.57;3.10;;;;;;;12.48;100.00;97743.69;5048346;28;20138;-64
2022/09/05 04:11:08;;;;;;;9.45;4.00;;;;;;;12.59;100.00;97749.22;5047998;28;20132;-64
2022/09/05 04:13:46;;;;;;;5.90;3.47;;;;;;;12.68;100.00;97744.94;5047988;28;20501;-64
2022/09/05 04:16:18;;;;;;;6.88;3.08;;;;;;;12.51;100.00;97749.66;5049854;28;20040;-64
2022/09/05 04:18:49;;;;;;;;;;;;;;;12.43;100.00;97743.63;5048335;28;20033;-65
2022/09/05 04:21:19;;;;;;;5.90;3.30;;;;;;;12.38;100.00;97748.97;5048323;28;19966;-63
2022/09/05 04:23:50;;;;;;;5.25;3.35;;;;;;;12.43;100.00;97748.22;5048244;28;20044;-63
2022/09/05 04:26:54;;;;;;;7.10;3.30;;;;;;;12.44;100.00;97750.69;5047790;28;20041;-64
2022/09/05 04:29:48;;;;;;;5.40;3.22;;;;;;;12.52;100.00;97751.31;5048094;28;20420;-64
2022/09/05 04:32:25;;;;;;;6.78;3.58;;;;;;;12.66;100.00;97749.84;5047720;28;20056;-64
2022/09/05 04:35:19;;;;;;;4.28;3.03;;;;;;;12.93;100.00;97748.19;5050991;28;20044;-63
2022/09/05 04:38:03;;;;;;;7.07;3.08;;;;;;;13.16;100.00;97749.72;5051754;28;20504;-63
2022/09/05 04:40:36;;;;;;;6.38;3.03;;;;;;;12.98;100.00;97749.03;5047907;28;20041;-64
2022/09/05 04:43:22;;;;;;;5.50;3.33;;;;;;;12.52;100.00;97756.72;5047476;28;20044;-64
2022/09/05 04:45:58;;;;;;;5.38;3.15;;;;;;;12.43;100.00;97756.38;5058236;28;20620;-64
2022/09/05 04:48:35;;;;;;;5.40;3.17;;;;;;;12.41;100.00;97763.94;5030836;28;20500;-64
2022/09/05 04:51:07;;;;;;;9.48;3.78;;;;;;;12.42;100.00;97763.69;5028785;28;20118;-63
2022/09/05 04:53:56;;;;;;;6.03;3.90;;;;;;;12.47;100.00;97760.22;5047891;28;20037;-64
2022/09/05 04:56:31;;;;;;;5.57;3.15;;;;;;;12.55;100.00;97761.66;5046961;28;20041;-63
2022/09/05 04:59:15;;;;;;;6.60;3.72;;;;;;;12.78;100.00;97765.19;5047121;28;20047;-63
2022/09/05 05:02:13;;;;;;;7.75;3.90;;;;;;;12.77;100.00;97771.66;5046783;28;20129;-64
2022/09/05 05:05:03;;;;;;;6.57;3.90;;;;;;;12.64;100.00;97779.13;5051387;28;20044;-64
2022/09/05 05:07:58;;;;;;;7.90;4.03;;;;;;;12.85;100.00;97776.63;5067086;28;20037;-63
2022/09/05 05:11:09;;;;;;;5.50;4.00;;;;;;;13.06;100.00;97771.41;5046477;28;20048;-64
2022/09/05 05:14:11;;;;;;;4.47;3.50;;;;;;;13.13;100.00;97772.81;5041609;28;20532;-63
2022/09/05 05:17:16;;;;;;;;;;;;;;;13.26;100.00;97781.63;5027208;28;20073;-64
2022/09/05 05:20:15;;;;;;;6.30;3.72;;;;;;;13.40;100.00;97787.44;5046874;28;19920;-64
2022/09/05 05:23:08;;;;;;;4.95;3.50;;;;;;;13.47;100.00;97788.06;5026678;28;20148;-64
2022/09/05 05:25:52;;;;;;;6.57;3.70;;;;;;;13.57;100.00;97786.50;5028163;28;20053;-64
2022/09/05 05:28:37;;;;;;;5.28;3.17;;;;;;;13.69;100.00;97786.31;5043549;28;20041;-64
2022/09/05 05:31:21;;;;;;;4.43;3.03;;;;;;;13.76;100.00;97786.91;5046531;28;20589;-64
2022/09/05 05:33:50;;;;;;;5.13;2.92;;;;;;;13.64;100.00;97787.91;5046965;28;20462;-64
2022/09/05 05:36:25;;;;;;;5.25;2.97;;;;;;;13.55;100.00;97792.22;5060821;28;20049;-63
2022/09/05 05:39:11;;;;;;;5.47;3.33;;;;;;;13.55;100.00;97799.53;5064803;28;20581;-64
2022/09/05 05:41:49;;;;;;;5.22;3.25;;;;;;;13.82;100.00;97794.00;5046187;28;20045;-64
2022/09/05 05:44:21;;;;;;;6.30;3.33;;;;;;;13.83;100.00;97801.13;5046706;28;20049;-63
2022/09/05 05:47:14;;;;;;;8.93;3.38;;;;;;;13.96;99.80;97801.75;5064982;28;20041;-63
2022/09/05 05:50:00;;;;;;;7.00;3.10;;;;;;;14.01;99.58;97805.28;5057928;28;20052;-63
2022/09/05 05:53:00;;;;;;;6.63;3.42;;;;;;;14.05;99.44;97809.13;5046423;28;20057;-63
2022/09/05 05:55:27;;;;;;;7.40;3.67;;;;;;;14.07;99.14;97808.06;5046322;28;20044;-63
2022/09/05 05:58:47;;;;;;;5.38;3.50;;;;;;;14.17;98.82;97808.94;5046774;28;20056;-63
2022/09/05 06:01:17;;;;;;;5.25;3.42;;;;;;;14.24;99.05;97805.97;5045622;28;20072;-63
2022/09/05 06:04:24;;;;;;;5.93;3.50;;;;;;;14.33;98.73;97808.97;5046468;28;20037;-63
2022/09/05 06:07:20;;;;;;;5.43;3.50;;;;;;;14.46;98.78;97812.31;5064979;28;20049;-63
2022/09/05 06:10:09;;;;;;;7.88;3.45;;;;;;;14.55;98.31;97814.25;5058991;28;20501;-64
2022/09/05 06:13:10;;;;;;;4.95;3.28;;;;;;;14.79;97.17;97811.09;5045663;28;20512;-62
2022/09/05 06:16:21;;;;;;;5.53;3.13;;;;;;;15.09;95.04;97805.97;5046141;28;20049;-64
2022/09/05 06:18:54;;;;;;;;;;;;;;;15.36;94.31;97809.53;5045192;28;20068;-63
2022/09/05 06:21:45;;;;;;;5.90;3.33;;;;;;;15.53;93.62;97806.50;5043425;28;19928;-64
2022/09/05 06:24:53;;;;;;;5.35;3.05;;;;;;;15.76;92.22;97801.56;5044927;28;20432;-64
2022/09/05 06:28:08;;;;;;;6.05;3.08;;;;;;;15.91;91.80;97804.28;5045078;28;20043;-63
2022/09/05 06:30:54;;;;;;;5.07;2.83;;;;;;;16.14;90.30;97806.72;5045431;28;20483;-64
2022/09/05 06:34:01;;;;;;;5.25;3.20;;;;;;;16.35;89.02;97805.56;5045499;28;20072;-65
2022/09/05 06:36:56;;;;;;;7.32;2.90;;;;;;;16.64;88.27;97807.63;5062136;28;20047;-64
2022/09/05 06:39:28;;;;;;;5.53;2.83;;;;;;;16.81;86.63;97811.88;5065562;28;20098;-64
2022/09/05 06:42:18;;;;;;;4.05;2.67;;;;;;;16.94;86.32;97806.88;5065297;28;20058;-64
2022/09/05 06:45:33;;;;;;;6.75;2.88;;;;;;;17.00;84.65;97809.31;5064310;28;20555;-64
2022/09/05 06:48:22;;;;;;;5.63;2.67;;;;;;;17.02;84.97;97809.03;5046322;28;20512;-64
2022/09/05 06:51:27;;;;;;;5.00;2.72;;;;;;;17.01;84.35;97810.97;5025313;28;20563;-64
2022/09/05 06:54:05;;;;;;;6.38;2.70;;;;;;;17.01;84.12;97813.69;5026074;28;20056;-64
2022/09/05 06:57:04;;;;;;;7.22;3.03;;;;;;;17.08;84.35;97807.09;5025442;28;20119;-64
2022/09/05 06:59:49;;;;;;;5.07;3.00;;;;;;;17.08;84.25;97815.31;5020154;28;20061;-64
2022/09/05 07:02:30;;;;;;;4.78;2.75;;;;;;;17.14;83.86;97817.72;5025376;28;20053;-64
2022/09/05 07:05:49;;;;;;;5.90;2.87;;;;;;;17.26;83.82;97814.66;5038134;28;20064;-64
2022/09/05 07:08:28;;;;;;;4.10;2.42;;;;;;;17.37;83.85;97822.78;5029248;28;20057;-63
2022/09/05 07:11:22;;;;;;;4.28;2.15;;;;;;;17.50;82.29;97816.66;5066053;28;20048;-64
2022/09/05 07:14:12;;;;;;;3.72;2.30;;;;;;;17.64;81.87;97822.28;5061191;28;20389;-63
2022/09/05 07:16:48;;;;;;;5.53;2.25;;;;;;;17.77;81.91;97820.78;5063680;28;20102;-64
2022/09/05 07:19:30;;;;;;;6.90;2.03;;;;;;;17.88;81.99;97816.00;5065696;28;20462;-64
2022/09/05 07:22:32;;;;;;;3.67;2.30;;;;;;;18.01;80.88;97821.91;5058654;28;20048;-64
2022/09/05 07:25:23;;;;;;;3.75;2.03;;;;;;;18.14;80.15;97821.25;5042598;28;20047;-64
2022/09/05 07:28:08;;;;;;;6.50;2.30;;;;;;;18.35;78.32;97820.22;5038871;28;20037;-64
2022/09/05 07:31:02;;;;;;;3.90;2.22;;;;;;;18.50;77.43;97819.22;5025634;28;20049;-63
2022/09/05 07:33:30;;;;;;;7.07;2.17;;;;;;;18.74;76.58;97813.72;5025734;28;20065;-64
2022/09/05 07:36:07;;;;;;;3.83;2.10;;;;;;;19.01;74.19;97811.44;5048437;28;20048;-64
2022/09/05 07:38:37;;;;;;;3.72;1.88;;;;;;;19.28;74.58;97810.78;5064791;28;20048;-63
2022/09/05 07:41:29;;;;;;;5.38;2.50;;;;;;;19.51;74.10;97819.19;5065318;28;20072;-63
2022/09/05 07:44:01;;;;;;;4.13;1.92;;;;;;;19.69;72.61;97813.94;5065581;28;20040;-64
2022/09/05 07:46:36;;;;;;;3.25;2.00;;;;;;;19.76;71.57;97823.41;5064256;28;20070;-64
2022/09/05 07:49:15;;;;;;;3.47;1.80;;;;;;;19.84;70.99;97821.09;5061933;28;20048;-64
2022/09/05 07:51:51;;;;;;;4.15;2.00;;;;;;;19.93;70.21;97823.97;5044656;28;20045;-64
2022/09/05 07:54:44;;;;;;;3.63;2.05;;;;;;;20.08;68.84;97820.16;5049265;28;20110;-65
2022/09/05 07:57:40;;;;;;;4.82;1.80;;;;;;;20.25;69.86;97814.88;5048336;28;20071;-64
2022/09/05 08:00:20;;;;;;;6.93;2.08;;;;;;;20.39;67.67;97817.59;5049040;28;20045;-64
2022/09/05 08:02:58;;;;;;;2.58;1.58;;;;;;;20.40;67.35;97818.44;5046679;28;20044;-65
2022/09/05 08:05:32;;;;;;;3.45;1.83;;;;;;;20.56;66.05;97824.44;5049974;28;20102;-64
2022/09/05 08:08:06;;;;;;;3.65;1.90;;;;;;;20.65;66.63;97825.31;5046702;28;20408;-64
2022/09/05 08:10:45;;;;;;;3.30;1.60;;;;;;;20.76;65.73;97833.38;5028361;28;20045;-64
2022/09/05 08:13:41;;;;;;;3.15;1.70;;;;;;;20.92;66.16;97822.88;5031045;28;20038;-64
2022/09/05 08:16:15;;;;;;;3.55;1.60;;;;;;;21.22;64.55;97830.75;5062572;28;20071;-64
2022/09/05 08:18:48;;;;;;;2.97;1.70;;;;;;;21.25;63.69;97822.69;5039383;28;20095;-64
2022/09/05 08:21:22;;;;;;;2.47;1.63;;;;;;;21.37;64.18;97822.13;5033883;28;20456;-64
2022/09/05 08:24:28;;;;;;;4.80;1.70;;;;;;;21.45;63.91;97817.81;5028993;28;20030;-65
2022/09/05 08:26:54;;;;;;;;;;;;;;;21.49;63.38;97812.50;5028667;28;20482;-64
2022/09/05 08:29:25;;;;;;;2.15;1.40;;;;;;;21.50;63.17;97822.38;5046870;28;19974;-64
2022/09/05 08:32:43;;;;;;;5.47;2.13;;;;;;;21.52;62.86;97820.94;5044117;28;20098;-65
2022/09/05 08:35:21;;;;;;;3.55;1.80;;;;;;;21.61;63.04;97822.94;5033218;28;20110;-64
2022/09/05 08:37:50;;;;;;;2.80;1.60;;;;;;;21.64;62.72;97814.03;5068331;28;20601;-64
2022/09/05 08:40:48;;;;;;;4.22;2.35;;;;;;;21.69;62.60;97816.66;5064881;28;20048;-65
2022/09/05 08:43:34;;;;;;;3.40;1.50;;;;;;;21.76;61.72;97819.81;5044338;28;20045;-65
2022/09/05 08:46:36;;;;;;;4.03;1.60;;;;;;;21.81;62.89;97816.09;5062883;28;20048;-64
2022/09/05 08:49:33;;;;;;;3.08;1.70;;;;;;;21.90;61.88;97819.75;5062307;28;20562;-64
2022/09/05 08:53:00;;;;;;;3.97;1.88;;;;;;;21.98;61.55;97820.09;5047524;28;20044;-64
2022/09/05 08:55:38;;;;;;;3.67;1.50;;;;;;;22.05;61.44;97813.00;5025401;28;20049;-65
2022/09/05 08:58:32;;;;;;;3.55;2.00;;;;;;;22.12;61.58;97812.56;5045027;28;20106;-65
2022/09/05 09:01:25;;;;;;;3.10;1.60;;;;;;;22.15;61.21;97817.41;5047648;28;20500;-65
2022/09/05 09:04:18;;;;;;;4.07;1.55;;;;;;;22.20;60.07;97820.06;5043152;28;20064;-65
2022/09/05 09:07:28;;;;;;;2.92;1.65;;;;;;;22.27;60.58;97814.06;5040501;28;20160;-65
2022/09/05 09:10:27;;;;;;;3.25;1.83;;;;;;;22.37;61.03;97815.72;5036823;28;20045;-65
2022/09/05 09:13:09;;;;;;;5.22;2.00;;;;;;;22.47;58.83;97812.66;5039458;28;20037;-65
2022/09/05 09:15:56;;;;;;;4.50;1.70;;;;;;;22.50;59.22;97802.94;5044614;28;20033;-65
2022/09/05 09:18:49;;;;;;;3.63;1.75;;;;;;;22.55;59.30;97805.56;5040450;28;20049;-65
2022/09/05 09:21:27;;;;;;;4.03;1.52;;;;;;;22.58;58.70;97806.88;5041390;28;20045;-65
2022/09/05 09:24:12;;;;;;;3.00;1.80;;;;;;;22.59;58.87;97801.03;5040435;28;20602;-65
2022/09/05 09:27:26;;;;;;;4.20;1.65;;;;;;;22.67;58.66;97793.09;5040399;28;20423;-65
2022/09/05 09:30:14;;;;;;;4.22;1.83;;;;;;;22.78;59.01;97796.38;5043559;28;20041;-65
2022/09/05 09:32:49;;;;;;;5.03;2.00;;;;;;;22.92;59.24;97788.75;5039931;28;20044;-65
2022/09/05 09:35:49;;;;;;;3.50;1.45;;;;;;;23.08;58.17;97799.31;5044966;28;20041;-65
2022/09/05 09:39:00;;;;;;;4.47;1.70;;;;;;;23.25;56.20;97793.78;5068448;28;20048;-65
2022/09/05 09:42:12;;;;;;;4.07;2.25;;;;;;;23.32;56.41;97792.47;5053547;28;20113;-65
2022/09/05 09:45:01;;;;;;;3.42;1.70;;;;;;;23.35;57.09;97794.63;5067062;28;20094;-65
2022/09/05 09:47:54;;;;;;;5.93;1.85;;;;;;;23.59;56.30;97791.31;5066801;28;20076;-65
2022/09/05 09:50:54;;;;;;;4.38;1.70;;;;;;;23.62;56.07;97795.41;5052381;28;20052;-65
2022/09/05 09:53:36;;;;;;;3.03;1.55;;;;;;;23.62;55.11;97790.69;5047193;28;20340;-65
2022/09/05 09:56:21;;;;;;;4.57;1.65;;;;;;;23.60;54.31;97792.16;5046867;28;20120;-65
2022/09/05 09:59:10;;;;;;;3.63;1.55;;;;;;;23.70;54.45;97789.03;5046388;28;20052;-65
2022/09/05 10:01:49;;;;;;;3.03;1.42;;;;;;;23.74;54.34;97787.22;5046893;28;20041;-65
2022/09/05 10:04:35;;;;;;;3.65;1.85;;;;;;;23.71;52.18;97793.44;5046799;28;20336;-66
2022/09/05 10:07:54;;;;;;;8.48;1.70;;;;;;;23.63;54.19;97786.75;5046749;28;20052;-65
2022/09/05 10:11:14;;;;;;;2.35;1.52;;;;;;;23.62;54.56;97795.41;5036590;28;20073;-65
2022/09/05 10:14:39;;;;;;;3.78;1.70;;;;;;;23.68;53.84;97787.72;5038673;28;20044;-65
2022/09/05 10:17:28;;;;;;;5.68;1.60;;;;;;;23.74;52.92;97787.22;5027282;28;20064;-65
2022/09/05 10:20:03;;;;;;;4.50;1.60;;;;;;;23.85;53.05;97784.91;5045733;28;20125;-65
2022/09/05 10:22:48;;;;;;;3.05;1.58;;;;;;;24.00;52.34;97780.81;5046957;28;20455;-66
2022/09/05 10:25:48;;;;;;;4.53;1.45;;;;;;;24.24;50.70;97773.91;5046583;28;20037;-66
2022/09/05 11:11:53;;;;;;;3.60;1.40;;;;;;;24.97;48.29;97737.97;5757288;23;20414;-59
2022/09/05 11:14:41;;;;;;;4.97;1.80;;;;;;;25.05;48.06;97731.53;4862060;23;20262;-62
2022/09/05 11:17:39;;;;;;;4.53;1.70;;;;;;;25.20;48.21;97735.63;4868269;29;20090;-62
2022/09/05 11:20:27;;;;;;;4.07;1.55;;;;;;;25.23;48.03;97728.59;4867672;29;20045;-63
2022/09/05 11:23:21;;;;;;;3.08;1.65;;;;;;;25.26;47.49;97743.72;4853280;29;20046;-63
2022/09/05 11:26:29;;;;;;;4.78;1.80;;;;;;;25.19;47.21;97731.25;4876342;29;20045;-62
2022/09/05 11:29:12;;;;;;;4.65;1.60;;;;;;;25.32;46.28;97736.84;4867085;29;20045;-64
2022/09/05 11:31:49;;;;;;;3.92;1.52;;;;;;;25.30;46.09;97737.19;4880958;29;20044;-63
2022/09/05 11:35:05;;;;;;;4.28;1.83;;;;;;;25.42;46.42;97733.63;4881425;29;20119;-62
2022/09/05 11:37:58;;;;;;;4.10;1.77;;;;;;;25.54;46.30;97730.06;4857874;29;20046;-63
2022/09/05 11:40:56;;;;;;;4.18;1.75;;;;;;;25.60;45.38;97729.91;4881240;29;20774;-63
2022/09/05 11:43:36;;;;;;;3.78;2.03;;;;;;;25.71;45.26;97729.09;4879358;29;20151;-64
2022/09/05 11:46:12;;;;;;;3.92;1.70;;;;;;;25.79;44.58;97726.59;4882948;29;20045;-62
2022/09/05 11:49:04;;;;;;;5.00;2.22;;;;;;;26.10;45.05;97717.66;4872650;29;20048;-63
2022/09/05 11:51:51;;;;;;;3.80;1.85;;;;;;;26.24;45.30;97722.88;4877532;29;20104;-63
2022/09/05 11:54:42;;;;;;;2.65;1.40;;;;;;;26.24;43.98;97713.75;4879236;29;20512;-63
2022/09/05 11:57:08;;;;;;;;;;;;;;;26.27;43.67;97707.53;4882170;29;20100;-64
2022/09/05 12:00:15;;;;;;;2.78;1.63;;;;;;;26.34;43.88;97712.50;4878260;29;20296;-63
2022/09/05 12:03:13;;;;;;;4.50;1.85;;;;;;;26.51;43.06;97711.44;4864353;29;20049;-63
2022/09/05 12:06:21;;;;;;;2.63;1.50;;;;;;;26.35;42.27;97712.13;4882312;29;20089;-64
2022/09/05 12:08:57;;;;;;;4.35;1.63;;;;;;;26.48;44.32;97715.72;4855398;29;20042;-63
2022/09/05 12:11:50;;;;;;;6.75;1.92;;;;;;;26.65;43.77;97711.06;4864023;29;20161;-63
2022/09/05 12:14:33;;;;;;;5.47;1.77;;;;;;;26.82;42.49;97701.63;4855961;29;20073;-64
2022/09/05 12:17:27;;;;;;;3.65;1.75;;;;;;;26.68;43.01;97704.78;4855984;29;20053;-62
2022/09/05 12:20:16;;;;;;;4.63;1.75;;;;;;;26.47;43.33;97691.88;4856531;29;20049;-64
2022/09/05 12:23:04;;;;;;;5.10;1.60;;;;;;;26.46;42.91;97698.59;4856414;29;20042;-63
2022/09/05 12:26:11;;;;;;;7.47;2.38;;;;;;;26.55;42.44;97695.69;4865347;29;20128;-64
2022/09/05 12:29:02;;;;;;;2.53;1.48;;;;;;;26.76;43.22;97694.72;4870813;29;20164;-63
2022/09/05 12:31:52;;;;;;;4.13;1.60;;;;;;;26.50;43.02;97687.63;4881814;29;20105;-64
2022/09/05 12:34:50;;;;;;;4.57;2.25;;;;;;;26.22;43.18;97677.22;4856467;29;20542;-63
2022/09/05 12:37:48;;;;;;;5.20;1.92;;;;;;;26.14;43.19;97689.25;4875004;29;20040;-63
2022/09/05 12:40:40;;;;;;;2.95;1.45;;;;;;;26.40;41.77;97680.56;4873499;29;20082;-63
2022/09/05 12:43:26;;;;;;;4.82;2.00;;;;;;;26.55;42.47;97679.03;4882614;29;20195;-63
2022/09/05 12:46:25;;;;;;;5.03;1.63;;;;;;;26.75;41.51;97680.00;4891138;29;20059;-64
2022/09/05 12:49:04;;;;;;;4.57;1.70;;;;;;;26.86;41.23;97679.50;4893196;29;20677;-64
2022/09/05 12:51:36;;;;;;;;;;;;;;;27.02;41.05;97679.59;4893569;29;20048;-64
2022/09/05 12:54:43;;;;;;;3.40;1.70;;;;;;;27.08;40.50;97669.81;4892831;29;20480;-63
2022/09/05 12:57:17;;;;;;;3.40;1.70;;;;;;;27.19;39.98;97667.34;4893023;29;20527;-64
2022/09/05 13:00:11;;;;;;;5.53;1.90;;;;;;;27.36;39.60;97663.44;4893097;29;20056;-63
2022/09/05 13:03:01;;;;;;;3.00;1.55;;;;;;;27.31;39.34;97660.09;4893058;29;20048;-63
2022/09/05 13:05:57;;;;;;;3.85;1.90;;;;;;;27.55;39.32;97655.53;4893147;29;20044;-63
2022/09/05 13:08:32;;;;;;;4.38;1.70;;;;;;;27.67;39.23;97660.25;4885620;29;20045;-63
2022/09/05 13:11:00;;;;;;;3.95;1.80;;;;;;;27.72;38.86;97659.97;4875237;29;20041;-64
2022/09/05 13:13:50;;;;;;;4.30;1.70;;;;;;;27.89;38.51;97656.00;4868812;29;20040;-63
2022/09/05 13:16:40;;;;;;;3.55;1.67;;;;;;;27.73;38.31;97654.06;4877632;29;20041;-63
2022/09/05 13:19:20;;;;;;;2.42;1.40;;;;;;;27.94;39.28;97652.13;4875089;29;20720;-63
2022/09/05 13:21:49;;;;;;;3.63;1.60;;;;;;;27.84;38.80;97650.72;4892702;29;20055;-63
2022/09/05 13:24:26;;;;;;;4.75;1.77;;;;;;;28.03;37.76;97642.44;4892262;29;20547;-63
2022/09/05 13:27:08;;;;;;;4.65;1.67;;;;;;;28.22;37.54;97638.06;4892397;29;20135;-63
2022/09/05 13:29:58;;;;;;;3.95;1.95;;;;;;;28.59;37.08;97648.03;4873784;29;20097;-63
2022/09/05 13:32:49;;;;;;;6.28;1.63;;;;;;;29.00;35.80;97642.09;4873948;29;20044;-63
2022/09/05 13:35:51;;;;;;;3.20;1.50;;;;;;;29.03;36.19;97644.16;4873171;29;20560;-63
2022/09/05 13:39:02;;;;;;;2.78;1.65;;;;;;;29.20;35.17;97640.09;4873601;29;20063;-63
2022/09/05 13:41:35;;;;;;;3.83;1.70;;;;;;;29.25;34.94;97640.97;4874601;29;20053;-62
2022/09/05 13:44:12;;;;;;;3.17;1.60;;;;;;;28.80;35.51;97630.97;4873269;29;20048;-63
2022/09/05 13:47:04;;;;;;;3.67;1.58;;;;;;;28.93;34.88;97626.06;4872950;29;20073;-63
2022/09/05 13:50:21;;;;;;;1.70;1.15;;;;;;;29.57;34.13;97624.00;4873378;29;20133;-63
2022/09/05 13:52:53;;;;;;;3.30;1.60;;;;;;;29.40;34.17;97622.53;4872932;29;20044;-63
2022/09/05 13:55:44;;;;;;;4.57;1.95;;;;;;;29.89;34.48;97617.34;4873355;29;20063;-63